sensor_id;sensor_type;location;lat;lon;timestamp;temperature;humidity
46608;DHT22;32330;51.936;7.184;2022-07-04T00:00:06;16.30;99.90
46608;DHT22;32330;51.936;7.184;2022-07-04T00:02:32;16.20;99.90
46608;DHT22;32330;51.936;7.184;2022-07-04T00:04:58;16.20;91.60
46608;DHT22;32330;51.936;7.184;2022-07-04T00:07:24;16.20;99.90
46608;DHT22;32330;51.936;7.184;2022-07-04T00:09:49;16.10;99.90
46608;DHT22;32330;51.936;7.184;2022-07-04T00:12:16;16.00;99.90
46608;DHT22;32330;51.936;7.184;2022-07-04T00:14:42;16.00;99.90
46608;DHT22;32330;51.936;7.184;2022-07-04T00:17:07;16.00;99.90
46608;DHT22;32330;51.936;7.184;2022-07-04T00:19:33;16.00;99.90
46608;DHT22;32330;51.936;7.184;2022-07-04T00:21:59;15.90;99.90
46608;DHT22;32330;51.936;7.184;2022-07-04T00:24:24;15.90;99.90
46608;DHT22;32330;51.936;7.184;2022-07-04T00:26:50;15.90;99.90
46608;DHT22;32330;51.936;7.184;2022-07-04T00:29:15;15.80;17.50
46608;DHT22;32330;51.936;7.184;2022-07-04T00:31:41;15.80;76.00
46608;DHT22;32330;51.936;7.184;2022-07-04T00:34:08;15.70;99.90
46608;DHT22;32330;51.936;7.184;2022-07-04T00:36:33;15.70;99.90
46608;DHT22;32330;51.936;7.184;2022-07-04T00:38:59;15.70;99.90
46608;DHT22;32330;51.936;7.184;2022-07-04T00:41:25;15.70;99.90
46608;DHT22;32330;51.936;7.184;2022-07-04T00:44:20;15.70;99.90
46608;DHT22;32330;51.936;7.184;2022-07-04T00:46:46;15.70;99.90
46608;DHT22;32330;51.936;7.184;2022-07-04T00:49:14;15.60;99.90
46608;DHT22;32330;51.936;7.184;2022-07-04T00:51:41;15.60;99.90
46608;DHT22;32330;51.936;7.184;2022-07-04T00:54:08;15.60;99.90
46608;DHT22;32330;51.936;7.184;2022-07-04T00:56:36;15.50;99.90
46608;DHT22;32330;51.936;7.184;2022-07-04T00:59:02;15.50;99.90
46608;DHT22;32330;51.936;7.184;2022-07-04T01:01:27;15.50;99.90
46608;DHT22;32330;51.936;7.184;2022-07-04T01:03:53;15.40;99.90
46608;DHT22;32330;51.936;7.184;2022-07-04T01:06:20;15.40;99.90
46608;DHT22;32330;51.936;7.184;2022-07-04T01:08:46;15.40;99.90
46608;DHT22;32330;51.936;7.184;2022-07-04T01:11:12;15.40;99.90
46608;DHT22;32330;51.936;7.184;2022-07-04T01:13:38;15.30;99.90
46608;DHT22;32330;51.936;7.184;2022-07-04T01:16:04;15.30;99.90
46608;DHT22;32330;51.936;7.184;2022-07-04T01:18:30;15.30;99.90
46608;DHT22;32330;51.936;7.184;2022-07-04T01:20:56;15.20;99.90
46608;DHT22;32330;51.936;7.184;2022-07-04T01:23:22;15.20;99.90
46608;DHT22;32330;51.936;7.184;2022-07-04T01:25:48;15.20;99.90
46608;DHT22;32330;51.936;7.184;2022-07-04T01:28:21;15.20;99.90
46608;DHT22;32330;51.936;7.184;2022-07-04T01:30:47;15.20;99.90
46608;DHT22;32330;51.936;7.184;2022-07-04T01:33:13;15.20;1.00
46608;DHT22;32330;51.936;7.184;2022-07-04T01:35:39;15.10;1.00
46608;DHT22;32330;51.936;7.184;2022-07-04T01:38:05;15.10;1.00
46608;DHT22;32330;51.936;7.184;2022-07-04T01:40:30;15.10;1.00
46608;DHT22;32330;51.936;7.184;2022-07-04T01:42:57;15.00;1.00
46608;DHT22;32330;51.936;7.184;2022-07-04T01:45:24;15.00;1.00
46608;DHT22;32330;51.936;7.184;2022-07-04T01:47:50;15.00;1.00
46608;DHT22;32330;51.936;7.184;2022-07-04T01:50:15;14.90;1.00
46608;DHT22;32330;51.936;7.184;2022-07-04T01:52:41;14.90;1.00
46608;DHT22;32330;51.936;7.184;2022-07-04T01:55:09;14.90;1.00
46608;DHT22;32330;51.936;7.184;2022-07-04T01:57:36;14.90;1.00
46608;DHT22;32330;51.936;7.184;2022-07-04T02:00:02;14.80;1.00
46608;DHT22;32330;51.936;7.184;2022-07-04T02:02:46;14.80;1.00
46608;DHT22;32330;51.936;7.184;2022-07-04T02:05:12;14.80;1.00
46608;DHT22;32330;51.936;7.184;2022-07-04T02:07:37;14.80;1.00
46608;DHT22;32330;51.936;7.184;2022-07-04T02:10:03;14.70;1.00
46608;DHT22;32330;51.936;7.184;2022-07-04T02:12:29;14.70;1.00
46608;DHT22;32330;51.936;7.184;2022-07-04T02:15:13;14.70;1.00
46608;DHT22;32330;51.936;7.184;2022-07-04T02:17:39;14.60;1.00
46608;DHT22;32330;51.936;7.184;2022-07-04T02:20:05;14.60;1.00
46608;DHT22;32330;51.936;7.184;2022-07-04T02:22:31;14.60;1.00
46608;DHT22;32330;51.936;7.184;2022-07-04T02:24:57;14.50;1.00
46608;DHT22;32330;51.936;7.184;2022-07-04T02:27:23;14.50;1.00
46608;DHT22;32330;51.936;7.184;2022-07-04T02:29:49;14.50;1.00
46608;DHT22;32330;51.936;7.184;2022-07-04T02:32:15;14.40;1.00
46608;DHT22;32330;51.936;7.184;2022-07-04T02:34:40;14.40;1.00
46608;DHT22;32330;51.936;7.184;2022-07-04T02:37:06;14.50;1.00
46608;DHT22;32330;51.936;7.184;2022-07-04T02:39:32;14.40;1.00
46608;DHT22;32330;51.936;7.184;2022-07-04T02:41:57;14.40;1.00
46608;DHT22;32330;51.936;7.184;2022-07-04T02:44:23;14.40;1.00
46608;DHT22;32330;51.936;7.184;2022-07-04T02:46:49;14.30;1.00
46608;DHT22;32330;51.936;7.184;2022-07-04T02:49:15;14.30;1.00
46608;DHT22;32330;51.936;7.184;2022-07-04T02:51:40;14.30;2.80
46608;DHT22;32330;51.936;7.184;2022-07-04T02:54:07;14.30;7.60
46608;DHT22;32330;51.936;7.184;2022-07-04T02:56:32;14.30;1.00
46608;DHT22;32330;51.936;7.184;2022-07-04T02:58:58;14.30;12.20
46608;DHT22;32330;51.936;7.184;2022-07-04T03:01:24;14.20;13.50
46608;DHT22;32330;51.936;7.184;2022-07-04T03:03:49;14.20;12.40
46608;DHT22;32330;51.936;7.184;2022-07-04T03:06:15;14.20;12.10
46608;DHT22;32330;51.936;7.184;2022-07-04T03:08:41;14.20;4.70
46608;DHT22;32330;51.936;7.184;2022-07-04T03:11:06;14.20;12.70
46608;DHT22;32330;51.936;7.184;2022-07-04T03:13:32;14.20;18.90
46608;DHT22;32330;51.936;7.184;2022-07-04T03:15:58;14.10;18.00
46608;DHT22;32330;51.936;7.184;2022-07-04T03:18:24;14.10;10.30
46608;DHT22;32330;51.936;7.184;2022-07-04T03:20:50;14.10;14.80
46608;DHT22;32330;51.936;7.184;2022-07-04T03:23:15;14.10;9.20
46608;DHT22;32330;51.936;7.184;2022-07-04T03:25:42;14.00;11.60
46608;DHT22;32330;51.936;7.184;2022-07-04T03:28:08;14.00;1.10
46608;DHT22;32330;51.936;7.184;2022-07-04T03:30:34;13.90;8.60
46608;DHT22;32330;51.936;7.184;2022-07-04T03:33:00;13.90;6.60
46608;DHT22;32330;51.936;7.184;2022-07-04T03:35:26;13.90;7.00
46608;DHT22;32330;51.936;7.184;2022-07-04T03:37:51;13.80;7.20
46608;DHT22;32330;51.936;7.184;2022-07-04T03:40:18;13.90;2.30
46608;DHT22;32330;51.936;7.184;2022-07-04T03:42:44;13.90;8.60
46608;DHT22;32330;51.936;7.184;2022-07-04T03:45:10;13.80;10.30
46608;DHT22;32330;51.936;7.184;2022-07-04T03:47:36;13.80;11.60
46608;DHT22;32330;51.936;7.184;2022-07-04T03:50:02;13.80;10.90
46608;DHT22;32330;51.936;7.184;2022-07-04T03:52:28;13.80;2.60
46608;DHT22;32330;51.936;7.184;2022-07-04T03:54:53;13.80;1.00
46608;DHT22;32330;51.936;7.184;2022-07-04T03:57:19;13.80;1.00
46608;DHT22;32330;51.936;7.184;2022-07-04T03:59:45;13.70;1.00
46608;DHT22;32330;51.936;7.184;2022-07-04T04:02:10;13.70;1.30
46608;DHT22;32330;51.936;7.184;2022-07-04T04:04:36;13.60;2.90
46608;DHT22;32330;51.936;7.184;2022-07-04T04:07:40;13.60;5.30
46608;DHT22;32330;51.936;7.184;2022-07-04T04:10:06;13.60;9.90
46608;DHT22;32330;51.936;7.184;2022-07-04T04:12:32;13.60;12.00
46608;DHT22;32330;51.936;7.184;2022-07-04T04:14:57;13.60;11.90
46608;DHT22;32330;51.936;7.184;2022-07-04T04:17:23;13.70;11.10
46608;DHT22;32330;51.936;7.184;2022-07-04T04:19:48;13.60;15.50
46608;DHT22;32330;51.936;7.184;2022-07-04T04:22:14;13.70;17.40
46608;DHT22;32330;51.936;7.184;2022-07-04T04:24:39;13.60;19.20
46608;DHT22;32330;51.936;7.184;2022-07-04T04:27:05;13.70;25.40
46608;DHT22;32330;51.936;7.184;2022-07-04T04:29:31;13.70;28.60
46608;DHT22;32330;51.936;7.184;2022-07-04T04:31:56;13.70;25.90
46608;DHT22;32330;51.936;7.184;2022-07-04T04:34:22;13.80;29.20
46608;DHT22;32330;51.936;7.184;2022-07-04T04:36:47;13.80;34.50
46608;DHT22;32330;51.936;7.184;2022-07-04T04:39:13;13.80;28.50
46608;DHT22;32330;51.936;7.184;2022-07-04T04:41:39;13.80;31.10
46608;DHT22;32330;51.936;7.184;2022-07-04T04:44:04;13.90;34.60
46608;DHT22;32330;51.936;7.184;2022-07-04T04:46:30;13.90;40.10
46608;DHT22;32330;51.936;7.184;2022-07-04T04:48:56;14.00;40.80
46608;DHT22;32330;51.936;7.184;2022-07-04T04:51:22;14.00;42.10
46608;DHT22;32330;51.936;7.184;2022-07-04T04:53:48;14.00;40.50
46608;DHT22;32330;51.936;7.184;2022-07-04T04:56:13;14.10;41.00
46608;DHT22;32330;51.936;7.184;2022-07-04T04:58:39;14.10;42.70
46608;DHT22;32330;51.936;7.184;2022-07-04T05:01:05;14.20;41.90
46608;DHT22;32330;51.936;7.184;2022-07-04T05:03:31;14.30;44.20
46608;DHT22;32330;51.936;7.184;2022-07-04T05:05:57;14.40;46.90
46608;DHT22;32330;51.936;7.184;2022-07-04T05:08:23;14.50;45.30
46608;DHT22;32330;51.936;7.184;2022-07-04T05:10:51;14.50;46.80
46608;DHT22;32330;51.936;7.184;2022-07-04T05:13:17;14.60;47.30
46608;DHT22;32330;51.936;7.184;2022-07-04T05:15:43;14.80;48.60
46608;DHT22;32330;51.936;7.184;2022-07-04T05:18:13;15.00;47.70
46608;DHT22;32330;51.936;7.184;2022-07-04T05:20:38;15.10;42.70
46608;DHT22;32330;51.936;7.184;2022-07-04T05:23:05;15.20;40.30
46608;DHT22;32330;51.936;7.184;2022-07-04T05:25:31;15.40;37.80
46608;DHT22;32330;51.936;7.184;2022-07-04T05:27:57;15.50;34.60
46608;DHT22;32330;51.936;7.184;2022-07-04T05:30:23;15.60;35.70
46608;DHT22;32330;51.936;7.184;2022-07-04T05:32:50;15.70;28.30
46608;DHT22;32330;51.936;7.184;2022-07-04T05:35:16;15.80;29.70
46608;DHT22;32330;51.936;7.184;2022-07-04T05:37:48;16.00;25.40
46608;DHT22;32330;51.936;7.184;2022-07-04T05:40:17;16.10;21.70
46608;DHT22;32330;51.936;7.184;2022-07-04T05:42:42;16.30;19.90
46608;DHT22;32330;51.936;7.184;2022-07-04T05:45:08;16.30;11.30
46608;DHT22;32330;51.936;7.184;2022-07-04T05:47:34;16.40;7.10
46608;DHT22;32330;51.936;7.184;2022-07-04T05:50:00;16.50;9.40
46608;DHT22;32330;51.936;7.184;2022-07-04T05:52:25;16.60;11.00
46608;DHT22;32330;51.936;7.184;2022-07-04T05:54:51;16.80;2.80
46608;DHT22;32330;51.936;7.184;2022-07-04T05:57:16;16.80;1.00
46608;DHT22;32330;51.936;7.184;2022-07-04T05:59:42;17.00;1.00
46608;DHT22;32330;51.936;7.184;2022-07-04T06:02:08;17.10;1.00
46608;DHT22;32330;51.936;7.184;2022-07-04T06:04:33;17.20;1.00
46608;DHT22;32330;51.936;7.184;2022-07-04T06:06:59;17.20;1.00
46608;DHT22;32330;51.936;7.184;2022-07-04T06:09:24;17.40;1.00
46608;DHT22;32330;51.936;7.184;2022-07-04T06:11:50;17.60;1.00
46608;DHT22;32330;51.936;7.184;2022-07-04T06:14:15;17.60;99.90
46608;DHT22;32330;51.936;7.184;2022-07-04T06:16:41;17.60;99.90
46608;DHT22;32330;51.936;7.184;2022-07-04T06:19:07;17.60;99.90
46608;DHT22;32330;51.936;7.184;2022-07-04T06:21:32;17.70;99.90
46608;DHT22;32330;51.936;7.184;2022-07-04T06:23:58;17.80;99.90
46608;DHT22;32330;51.936;7.184;2022-07-04T06:26:24;18.00;99.90
46608;DHT22;32330;51.936;7.184;2022-07-04T06:28:49;18.20;99.90
46608;DHT22;32330;51.936;7.184;2022-07-04T06:31:15;18.50;99.90
46608;DHT22;32330;51.936;7.184;2022-07-04T06:33:42;18.60;99.90
46608;DHT22;32330;51.936;7.184;2022-07-04T06:36:26;18.60;99.90
46608;DHT22;32330;51.936;7.184;2022-07-04T06:38:52;18.70;21.60
46608;DHT22;32330;51.936;7.184;2022-07-04T06:41:17;19.00;16.40
46608;DHT22;32330;51.936;7.184;2022-07-04T06:43:43;19.00;99.90
46608;DHT22;32330;51.936;7.184;2022-07-04T06:46:09;19.00;99.90
46608;DHT22;32330;51.936;7.184;2022-07-04T06:48:35;18.90;99.90
46608;DHT22;32330;51.936;7.184;2022-07-04T06:51:00;19.10;1.00
46608;DHT22;32330;51.936;7.184;2022-07-04T06:53:26;19.30;99.90
46608;DHT22;32330;51.936;7.184;2022-07-04T06:55:51;19.50;99.90
46608;DHT22;32330;51.936;7.184;2022-07-04T06:58:17;19.60;99.90
46608;DHT22;32330;51.936;7.184;2022-07-04T07:00:42;19.70;99.90
46608;DHT22;32330;51.936;7.184;2022-07-04T07:03:09;19.90;99.90
46608;DHT22;32330;51.936;7.184;2022-07-04T07:05:34;19.90;99.90
46608;DHT22;32330;51.936;7.184;2022-07-04T07:08:03;19.90;99.90
46608;DHT22;32330;51.936;7.184;2022-07-04T07:10:28;20.10;99.90
46608;DHT22;32330;51.936;7.184;2022-07-04T07:12:54;20.30;99.90
46608;DHT22;32330;51.936;7.184;2022-07-04T07:15:20;20.30;20.90
46608;DHT22;32330;51.936;7.184;2022-07-04T07:17:46;20.40;1.00
46608;DHT22;32330;51.936;7.184;2022-07-04T07:20:11;20.70;99.90
46608;DHT22;32330;51.936;7.184;2022-07-04T07:22:39;20.70;99.90
46608;DHT22;32330;51.936;7.184;2022-07-04T07:25:06;20.80;90.70
46608;DHT22;32330;51.936;7.184;2022-07-04T07:27:31;20.70;44.40
46608;DHT22;32330;51.936;7.184;2022-07-04T07:29:57;20.80;31.20
46608;DHT22;32330;51.936;7.184;2022-07-04T07:32:22;21.00;30.40
46608;DHT22;32330;51.936;7.184;2022-07-04T07:34:48;20.90;1.00
46608;DHT22;32330;51.936;7.184;2022-07-04T07:37:13;20.90;99.90
46608;DHT22;32330;51.936;7.184;2022-07-04T07:39:39;21.10;99.90
46608;DHT22;32330;51.936;7.184;2022-07-04T07:42:04;21.30;99.90
46608;DHT22;32330;51.936;7.184;2022-07-04T07:44:30;21.40;99.90
46608;DHT22;32330;51.936;7.184;2022-07-04T07:46:56;21.60;99.90
46608;DHT22;32330;51.936;7.184;2022-07-04T07:49:21;21.60;99.90
46608;DHT22;32330;51.936;7.184;2022-07-04T07:51:47;22.00;99.10
46608;DHT22;32330;51.936;7.184;2022-07-04T07:54:12;22.00;69.00
46608;DHT22;32330;51.936;7.184;2022-07-04T07:56:38;22.00;1.00
46608;DHT22;32330;51.936;7.184;2022-07-04T07:59:04;22.00;1.00
46608;DHT22;32330;51.936;7.184;2022-07-04T08:01:30;22.20;1.00
46608;DHT22;32330;51.936;7.184;2022-07-04T08:03:55;22.20;99.90
46608;DHT22;32330;51.936;7.184;2022-07-04T08:06:40;22.00;99.90
46608;DHT22;32330;51.936;7.184;2022-07-04T08:09:07;21.90;99.90
46608;DHT22;32330;51.936;7.184;2022-07-04T08:11:33;21.90;99.90
46608;DHT22;32330;51.936;7.184;2022-07-04T08:13:58;22.10;99.90
46608;DHT22;32330;51.936;7.184;2022-07-04T08:16:24;22.20;99.90
46608;DHT22;32330;51.936;7.184;2022-07-04T08:18:50;22.50;33.70
46608;DHT22;32330;51.936;7.184;2022-07-04T08:21:15;22.50;10.30
46608;DHT22;32330;51.936;7.184;2022-07-04T08:23:42;22.70;7.70
46608;DHT22;32330;51.936;7.184;2022-07-04T08:26:08;23.00;1.00
46608;DHT22;32330;51.936;7.184;2022-07-04T08:28:34;23.50;1.00
46608;DHT22;32330;51.936;7.184;2022-07-04T08:30:59;23.70;1.00
46608;DHT22;32330;51.936;7.184;2022-07-04T08:33:25;23.60;99.90
46608;DHT22;32330;51.936;7.184;2022-07-04T08:35:51;23.50;99.90
46608;DHT22;32330;51.936;7.184;2022-07-04T08:38:17;23.70;99.90
46608;DHT22;32330;51.936;7.184;2022-07-04T08:40:43;23.60;99.90
46608;DHT22;32330;51.936;7.184;2022-07-04T08:43:13;23.70;99.90
46608;DHT22;32330;51.936;7.184;2022-07-04T08:45:40;23.90;99.90
46608;DHT22;32330;51.936;7.184;2022-07-04T08:48:08;23.70;99.90
46608;DHT22;32330;51.936;7.184;2022-07-04T08:50:35;23.80;1.00
46608;DHT22;32330;51.936;7.184;2022-07-04T08:53:07;24.00;30.60
46608;DHT22;32330;51.936;7.184;2022-07-04T08:55:35;24.00;1.00
46608;DHT22;32330;51.936;7.184;2022-07-04T08:58:19;24.10;23.30
46608;DHT22;32330;51.936;7.184;2022-07-04T09:00:53;24.10;99.90
46608;DHT22;32330;51.936;7.184;2022-07-04T09:03:20;24.00;99.90
46608;DHT22;32330;51.936;7.184;2022-07-04T09:05:46;24.00;46.10
46608;DHT22;32330;51.936;7.184;2022-07-04T09:08:12;24.20;51.70
46608;DHT22;32330;51.936;7.184;2022-07-04T09:10:37;24.70;76.70
46608;DHT22;32330;51.936;7.184;2022-07-04T09:13:05;24.60;76.90
46608;DHT22;32330;51.936;7.184;2022-07-04T09:15:31;24.60;76.60
46608;DHT22;32330;51.936;7.184;2022-07-04T09:17:58;24.20;76.90
46608;DHT22;32330;51.936;7.184;2022-07-04T09:20:24;24.50;75.60
46608;DHT22;32330;51.936;7.184;2022-07-04T09:22:52;24.60;76.30
46608;DHT22;32330;51.936;7.184;2022-07-04T09:25:18;24.70;75.10
46608;DHT22;32330;51.936;7.184;2022-07-04T09:27:47;24.70;76.10
46608;DHT22;32330;51.936;7.184;2022-07-04T09:30:18;24.80;76.80
46608;DHT22;32330;51.936;7.184;2022-07-04T09:32:49;24.90;77.90
46608;DHT22;32330;51.936;7.184;2022-07-04T09:35:23;25.00;77.90
46608;DHT22;32330;51.936;7.184;2022-07-04T09:37:53;25.20;77.10
46608;DHT22;32330;51.936;7.184;2022-07-04T09:40:25;24.70;74.60
46608;DHT22;32330;51.936;7.184;2022-07-04T09:42:52;24.70;76.40
46608;DHT22;32330;51.936;7.184;2022-07-04T09:45:18;25.20;74.50
46608;DHT22;32330;51.936;7.184;2022-07-04T09:47:45;25.30;74.00
46608;DHT22;32330;51.936;7.184;2022-07-04T09:50:18;25.40;73.20
46608;DHT22;32330;51.936;7.184;2022-07-04T09:52:52;25.30;73.40
46608;DHT22;32330;51.936;7.184;2022-07-04T09:58:02;25.20;73.70
46608;DHT22;32330;51.936;7.184;2022-07-04T10:00:33;25.10;73.00
46608;DHT22;32330;51.936;7.184;2022-07-04T10:03:25;24.80;73.10
46608;DHT22;32330;51.936;7.184;2022-07-04T10:08:33;24.50;75.90
46608;DHT22;32330;51.936;7.184;2022-07-04T10:11:00;24.30;75.70
46608;DHT22;32330;51.936;7.184;2022-07-04T10:13:26;24.60;76.70
46608;DHT22;32330;51.936;7.184;2022-07-04T10:15:52;25.00;73.60
46608;DHT22;32330;51.936;7.184;2022-07-04T10:18:20;24.60;74.00
46608;DHT22;32330;51.936;7.184;2022-07-04T10:20:46;24.30;75.90
46608;DHT22;32330;51.936;7.184;2022-07-04T10:23:12;24.50;75.20
46608;DHT22;32330;51.936;7.184;2022-07-04T10:25:39;24.60;76.50
46608;DHT22;32330;51.936;7.184;2022-07-04T10:28:04;24.80;77.30
46608;DHT22;32330;51.936;7.184;2022-07-04T10:30:32;25.10;75.10
46608;DHT22;32330;51.936;7.184;2022-07-04T10:33:01;25.00;74.30
46608;DHT22;32330;51.936;7.184;2022-07-04T10:35:56;24.80;75.50
46608;DHT22;32330;51.936;7.184;2022-07-04T10:38:26;24.50;75.90
46608;DHT22;32330;51.936;7.184;2022-07-04T10:51:14;25.40;75.00
46608;DHT22;32330;51.936;7.184;2022-07-04T10:54:01;24.90;74.10
46608;DHT22;32330;51.936;7.184;2022-07-04T10:58:54;25.60;74.10
46608;DHT22;32330;51.936;7.184;2022-07-04T11:01:20;25.40;74.10
46608;DHT22;32330;51.936;7.184;2022-07-04T11:03:50;25.40;75.40
46608;DHT22;32330;51.936;7.184;2022-07-04T11:09:15;25.60;75.10
46608;DHT22;32330;51.936;7.184;2022-07-04T11:11:55;25.70;73.90
46608;DHT22;32330;51.936;7.184;2022-07-04T11:14:44;26.20;73.80
46608;DHT22;32330;51.936;7.184;2022-07-04T11:17:36;26.40;73.60
46608;DHT22;32330;51.936;7.184;2022-07-04T11:20:03;26.70;74.70
46608;DHT22;32330;51.936;7.184;2022-07-04T11:22:29;26.50;72.70
46608;DHT22;32330;51.936;7.184;2022-07-04T11:24:56;26.20;72.10
46608;DHT22;32330;51.936;7.184;2022-07-04T11:27:22;26.50;72.30
46608;DHT22;32330;51.936;7.184;2022-07-04T11:29:52;26.70;73.80
46608;DHT22;32330;51.936;7.184;2022-07-04T11:32:21;26.70;70.80
46608;DHT22;32330;51.936;7.184;2022-07-04T11:34:55;26.90;70.90
46608;DHT22;32330;51.936;7.184;2022-07-04T11:37:21;26.80;71.00
46608;DHT22;32330;51.936;7.184;2022-07-04T11:39:54;26.90;70.60
46608;DHT22;32330;51.936;7.184;2022-07-04T11:43:05;27.20;70.90
46608;DHT22;32330;51.936;7.184;2022-07-04T11:45:50;27.70;69.10
46608;DHT22;32330;51.936;7.184;2022-07-04T11:48:27;27.80;67.30
46608;DHT22;32330;51.936;7.184;2022-07-04T11:50:53;27.70;66.50
46608;DHT22;32330;51.936;7.184;2022-07-04T11:53:19;27.60;68.10
46608;DHT22;32330;51.936;7.184;2022-07-04T11:55:58;27.30;65.40
46608;DHT22;32330;51.936;7.184;2022-07-04T11:58:41;27.30;66.20
46608;DHT22;32330;51.936;7.184;2022-07-04T12:01:08;27.30;67.20
46608;DHT22;32330;51.936;7.184;2022-07-04T12:03:35;27.40;66.90
46608;DHT22;32330;51.936;7.184;2022-07-04T12:06:02;27.70;68.40
46608;DHT22;32330;51.936;7.184;2022-07-04T12:08:27;27.50;66.20
46608;DHT22;32330;51.936;7.184;2022-07-04T12:10:53;27.90;66.80
46608;DHT22;32330;51.936;7.184;2022-07-04T12:13:19;28.00;69.50
46608;DHT22;32330;51.936;7.184;2022-07-04T12:15:50;28.00;66.40
46608;DHT22;32330;51.936;7.184;2022-07-04T12:18:19;28.10;66.00
46608;DHT22;32330;51.936;7.184;2022-07-04T12:20:46;28.00;66.50
46608;DHT22;32330;51.936;7.184;2022-07-04T12:23:12;27.90;65.50
46608;DHT22;32330;51.936;7.184;2022-07-04T12:25:38;27.70;66.90
46608;DHT22;32330;51.936;7.184;2022-07-04T12:28:09;27.50;67.40
46608;DHT22;32330;51.936;7.184;2022-07-04T12:30:36;26.80;66.60
46608;DHT22;32330;51.936;7.184;2022-07-04T12:33:04;26.70;67.10
46608;DHT22;32330;51.936;7.184;2022-07-04T12:35:37;26.70;68.40
46608;DHT22;32330;51.936;7.184;2022-07-04T12:40:35;27.10;67.40
46608;DHT22;32330;51.936;7.184;2022-07-04T12:43:01;27.30;67.00
46608;DHT22;32330;51.936;7.184;2022-07-04T12:45:50;27.50;68.10
46608;DHT22;32330;51.936;7.184;2022-07-04T12:48:23;27.50;67.30
46608;DHT22;32330;51.936;7.184;2022-07-04T12:50:50;27.70;67.80
46608;DHT22;32330;51.936;7.184;2022-07-04T12:53:16;27.80;67.00
46608;DHT22;32330;51.936;7.184;2022-07-04T12:55:45;27.40;66.30
46608;DHT22;32330;51.936;7.184;2022-07-04T12:58:11;27.60;66.80
46608;DHT22;32330;51.936;7.184;2022-07-04T13:00:37;27.50;65.20
46608;DHT22;32330;51.936;7.184;2022-07-04T13:03:03;27.60;67.60
46608;DHT22;32330;51.936;7.184;2022-07-04T13:05:29;27.40;64.90
46608;DHT22;32330;51.936;7.184;2022-07-04T13:07:55;27.30;67.40
46608;DHT22;32330;51.936;7.184;2022-07-04T13:10:21;27.00;66.20
46608;DHT22;32330;51.936;7.184;2022-07-04T13:12:47;26.50;65.60
46608;DHT22;32330;51.936;7.184;2022-07-04T13:15:13;26.80;66.60
46608;DHT22;32330;51.936;7.184;2022-07-04T13:17:38;27.10;67.70
46608;DHT22;32330;51.936;7.184;2022-07-04T13:20:04;26.70;67.30
46608;DHT22;32330;51.936;7.184;2022-07-04T13:22:30;26.30;67.80
46608;DHT22;32330;51.936;7.184;2022-07-04T13:24:56;26.30;68.00
46608;DHT22;32330;51.936;7.184;2022-07-04T13:27:21;26.40;68.10
46608;DHT22;32330;51.936;7.184;2022-07-04T13:29:47;26.20;69.00
46608;DHT22;32330;51.936;7.184;2022-07-04T13:32:13;26.10;68.40
46608;DHT22;32330;51.936;7.184;2022-07-04T13:34:38;26.00;68.50
46608;DHT22;32330;51.936;7.184;2022-07-04T13:37:05;25.90;69.40
46608;DHT22;32330;51.936;7.184;2022-07-04T13:39:31;25.90;68.90
46608;DHT22;32330;51.936;7.184;2022-07-04T13:41:57;26.00;69.50
46608;DHT22;32330;51.936;7.184;2022-07-04T13:44:23;25.90;69.10
46608;DHT22;32330;51.936;7.184;2022-07-04T13:46:48;26.40;70.40
46608;DHT22;32330;51.936;7.184;2022-07-04T13:49:14;26.50;71.20
46608;DHT22;32330;51.936;7.184;2022-07-04T13:51:43;26.60;69.20
46608;DHT22;32330;51.936;7.184;2022-07-04T13:54:09;27.00;68.60
46608;DHT22;32330;51.936;7.184;2022-07-04T13:56:35;27.10;69.20
46608;DHT22;32330;51.936;7.184;2022-07-04T13:59:01;27.30;67.30
46608;DHT22;32330;51.936;7.184;2022-07-04T14:01:27;27.30;67.30
46608;DHT22;32330;51.936;7.184;2022-07-04T14:03:53;27.20;67.60
46608;DHT22;32330;51.936;7.184;2022-07-04T14:06:19;27.40;68.00
46608;DHT22;32330;51.936;7.184;2022-07-04T14:08:45;27.00;68.50
46608;DHT22;32330;51.936;7.184;2022-07-04T14:11:11;26.70;68.00
46608;DHT22;32330;51.936;7.184;2022-07-04T14:13:37;27.00;67.50
46608;DHT22;32330;51.936;7.184;2022-07-04T14:16:04;26.90;67.80
46608;DHT22;32330;51.936;7.184;2022-07-04T14:18:31;26.60;66.60
46608;DHT22;32330;51.936;7.184;2022-07-04T14:20:57;27.10;67.00
46608;DHT22;32330;51.936;7.184;2022-07-04T14:23:23;27.40;66.20
46608;DHT22;32330;51.936;7.184;2022-07-04T14:26:08;27.20;66.50
46608;DHT22;32330;51.936;7.184;2022-07-04T14:28:35;27.40;65.10
46608;DHT22;32330;51.936;7.184;2022-07-04T14:31:01;27.60;65.70
46608;DHT22;32330;51.936;7.184;2022-07-04T14:33:26;27.70;66.40
46608;DHT22;32330;51.936;7.184;2022-07-04T14:35:52;27.60;66.40
46608;DHT22;32330;51.936;7.184;2022-07-04T14:38:18;27.90;65.70
46608;DHT22;32330;51.936;7.184;2022-07-04T14:40:44;27.90;65.00
46608;DHT22;32330;51.936;7.184;2022-07-04T14:43:12;27.80;66.60
46608;DHT22;32330;51.936;7.184;2022-07-04T14:45:38;27.70;64.90
46608;DHT22;32330;51.936;7.184;2022-07-04T14:48:04;27.80;66.40
46608;DHT22;32330;51.936;7.184;2022-07-04T14:50:30;27.20;65.50
46608;DHT22;32330;51.936;7.184;2022-07-04T14:52:56;27.50;65.20
46608;DHT22;32330;51.936;7.184;2022-07-04T14:55:21;28.00;67.30
46608;DHT22;32330;51.936;7.184;2022-07-04T14:57:47;28.10;66.10
46608;DHT22;32330;51.936;7.184;2022-07-04T15:00:12;28.00;66.90
46608;DHT22;32330;51.936;7.184;2022-07-04T15:02:38;27.80;66.00
46608;DHT22;32330;51.936;7.184;2022-07-04T15:05:04;27.20;65.50
46608;DHT22;32330;51.936;7.184;2022-07-04T15:07:30;26.80;66.40
46608;DHT22;32330;51.936;7.184;2022-07-04T15:09:56;27.30;65.40
46608;DHT22;32330;51.936;7.184;2022-07-04T15:12:21;27.50;66.60
46608;DHT22;32330;51.936;7.184;2022-07-04T15:14:47;27.70;67.00
46608;DHT22;32330;51.936;7.184;2022-07-04T15:17:13;27.60;66.00
46608;DHT22;32330;51.936;7.184;2022-07-04T15:19:40;27.90;67.30
46608;DHT22;32330;51.936;7.184;2022-07-04T15:22:24;27.80;66.90
46608;DHT22;32330;51.936;7.184;2022-07-04T15:25:09;27.90;66.90
46608;DHT22;32330;51.936;7.184;2022-07-04T15:27:34;27.60;65.80
46608;DHT22;32330;51.936;7.184;2022-07-04T15:30:00;27.50;66.50
46608;DHT22;32330;51.936;7.184;2022-07-04T15:32:25;27.10;66.70
46608;DHT22;32330;51.936;7.184;2022-07-04T15:34:51;26.70;67.90
46608;DHT22;32330;51.936;7.184;2022-07-04T15:37:16;26.90;67.40
46608;DHT22;32330;51.936;7.184;2022-07-04T15:39:42;26.40;67.30
46608;DHT22;32330;51.936;7.184;2022-07-04T15:42:08;26.30;69.50
46608;DHT22;32330;51.936;7.184;2022-07-04T15:44:33;26.30;68.40
46608;DHT22;32330;51.936;7.184;2022-07-04T15:46:59;26.90;69.30
46608;DHT22;32330;51.936;7.184;2022-07-04T15:49:42;27.20;69.50
46608;DHT22;32330;51.936;7.184;2022-07-04T15:52:08;27.40;66.90
46608;DHT22;32330;51.936;7.184;2022-07-04T15:54:34;27.40;66.30
46608;DHT22;32330;51.936;7.184;2022-07-04T15:57:00;27.40;67.50
46608;DHT22;32330;51.936;7.184;2022-07-04T15:59:26;27.10;68.00